Time;durP1;ratioP1;P1;durP2;ratioP2;P2;SDS_P1;SDS_P2;PMS_P1;PMS_P2;Temp;Humidity;BMP_temperature;BMP_pressure;BME280_temperature;BME280_humidity;BME280_pressure;Samples;Min_cycle;Max_cycle;Signal;HPM_P1;HPM_P2
2023/08/25 00:02:00;;;;;;;25.80;17.60;;;;;;;;;;5053672;28;20092;-32
2023/08/25 00:04:25;;;;;;;24.83;17.47;;;;;;;;;;5052963;28;20267;-32
2023/08/25 00:06:50;;;;;;;26.70;18.80;;;;;;;;;;5052744;28;20629;-32
2023/08/25 00:09:15;;;;;;;27.13;19.47;;;;;;;;;;5053542;28;20028;-31
2023/08/25 00:11:40;;;;;;;29.10;20.13;;;;;;;;;;5056783;28;20359;-30
2023/08/25 00:14:06;;;;;;;34.23;21.40;;;;;;;;;;5056716;28;20732;-32
2023/08/25 00:16:31;;;;;;;30.60;21.23;;;;;;;;;;5057160;28;20024;-31
2023/08/25 00:18:56;;;;;;;32.93;21.17;;;;;;;;;;5057124;28;20602;-31
2023/08/25 00:21:21;;;;;;;32.37;21.27;;;;;;;;;;5056768;28;20021;-32
2023/08/25 00:23:47;;;;;;;32.60;21.55;;;;;;;;;;5056426;28;20271;-31
2023/08/25 00:26:12;;;;;;;31.58;21.23;;;;;;;;;;5056447;28;20055;-31
2023/08/25 00:28:37;;;;;;;32.40;21.73;;;;;;;;;;5056405;28;20017;-31
2023/08/25 00:31:02;;;;;;;32.57;22.90;;;;;;;;;;5055030;28;20263;-30
2023/08/25 00:33:28;;;;;;;37.13;23.33;;;;;;;;;;5056618;28;20407;-30
2023/08/25 00:35:53;;;;;;;34.27;23.40;;;;;;;;;;5056308;28;20020;-32
2023/08/25 00:38:18;;;;;;;35.73;22.70;;;;;;;;;;5056802;28;20047;-31
2023/08/25 00:40:43;;;;;;;33.13;22.42;;;;;;;;;;5056443;28;20020;-31
2023/08/25 00:43:09;;;;;;;34.63;24.53;;;;;;;;;;5056390;28;20050;-30
2023/08/25 00:45:37;;;;;;;35.50;25.03;;;;;;;;;;5055908;28;20279;-31
2023/08/25 00:48:02;;;;;;;34.95;24.75;;;;;;;;;;5056011;28;20071;-32
2023/08/25 00:50:28;;;;;;;41.50;25.08;;;;;;;;;;5055941;28;20016;-31
2023/08/25 00:52:53;;;;;;;36.90;25.23;;;;;;;;;;5056504;28;20017;-31
2023/08/25 00:55:19;;;;;;;39.33;25.77;;;;;;;;;;5054600;28;20111;-32
2023/08/25 00:57:44;;;;;;;38.17;26.00;;;;;;;;;;5056119;28;20267;-31
2023/08/25 01:00:11;;;;;;;39.97;26.03;;;;;;;;;;5055893;28;20092;-31
2023/08/25 01:02:36;;;;;;;39.30;26.40;;;;;;;;;;5055985;28;20742;-32
2023/08/25 01:05:03;;;;;;;41.03;26.52;;;;;;;;;;5055829;28;20020;-32
2023/08/25 01:07:28;;;;;;;42.28;26.77;;;;;;;;;;5055918;28;20025;-32
2023/08/25 01:09:54;;;;;;;40.87;26.10;;;;;;;;;;5055894;28;20372;-31
2023/08/25 01:12:27;;;;;;;39.03;27.05;;;;;;;;;;5055415;28;20037;-31
2023/08/25 01:14:52;;;;;;;;;;;;;;;;;;5055876;28;20028;-31
2023/08/25 01:17:39;;;;;;;43.85;27.85;;;;;;;;;;5056066;28;19904;-31
2023/08/25 01:20:06;;;;;;;42.25;27.40;;;;;;;;;;5055345;28;20174;-30
2023/08/25 01:22:50;;;;;;;43.35;28.60;;;;;;;;;;5054389;28;20021;-31
2023/08/25 01:25:35;;;;;;;48.55;29.25;;;;;;;;;;5053981;28;20162;-31
2023/08/25 01:28:02;;;;;;;49.92;29.17;;;;;;;;;;5055684;28;20037;-31
2023/08/25 01:30:31;;;;;;;46.83;28.77;;;;;;;;;;5055067;28;20013;-32
2023/08/25 01:32:57;;;;;;;48.33;29.15;;;;;;;;;;5055326;28;20017;-31
2023/08/25 01:35:43;;;;;;;49.95;29.67;;;;;;;;;;5055921;28;20024;-31
2023/08/25 01:38:15;;;;;;;50.25;29.73;;;;;;;;;;5047735;28;20029;-30
2023/08/25 01:40:44;;;;;;;54.83;30.33;;;;;;;;;;5055748;28;20025;-30
2023/08/25 01:43:10;;;;;;;46.33;31.13;;;;;;;;;;5054947;28;20520;-30
2023/08/25 01:45:36;;;;;;;47.63;30.13;;;;;;;;;;5054853;28;20108;-30
2023/08/25 01:48:04;;;;;;;46.95;30.63;;;;;;;;;;5055173;28;20109;-30
2023/08/25 01:50:29;;;;;;;44.90;29.55;;;;;;;;;;5054804;28;20021;-30
2023/08/25 01:52:54;;;;;;;46.45;29.85;;;;;;;;;;5055031;28;20031;-31
2023/08/25 01:55:19;;;;;;;51.33;30.73;;;;;;;;;;5054997;28;20070;-31
2023/08/25 01:57:44;;;;;;;48.53;29.60;;;;;;;;;;5054645;28;20267;-31
2023/08/25 02:00:10;;;;;;;46.97;29.77;;;;;;;;;;5054977;28;20381;-31
2023/08/25 02:02:35;;;;;;;45.92;29.75;;;;;;;;;;5054631;28;20491;-31
2023/08/25 02:05:01;;;;;;;44.75;29.75;;;;;;;;;;5054627;28;20013;-30
2023/08/25 02:07:26;;;;;;;44.67;30.30;;;;;;;;;;5054665;28;20353;-31
2023/08/25 02:09:54;;;;;;;45.30;30.43;;;;;;;;;;5054470;28;20264;-30
2023/08/25 02:12:19;;;;;;;45.05;28.98;;;;;;;;;;5054251;28;20045;-30
2023/08/25 02:14:45;;;;;;;49.07;30.53;;;;;;;;;;5054679;28;20013;-31
2023/08/25 02:17:10;;;;;;;49.10;30.60;;;;;;;;;;5054980;28;20259;-31
2023/08/25 02:19:35;;;;;;;46.70;30.43;;;;;;;;;;5052890;28;20517;-31
2023/08/25 02:22:00;;;;;;;49.03;30.20;;;;;;;;;;5052162;28;20792;-31
2023/08/25 02:24:25;;;;;;;45.55;30.38;;;;;;;;;;5052264;28;20260;-30
2023/08/25 02:26:51;;;;;;;53.47;31.27;;;;;;;;;;5052165;28;20020;-31
2023/08/25 02:29:16;;;;;;;48.72;31.35;;;;;;;;;;5052277;28;20074;-30
2023/08/25 02:31:41;;;;;;;50.33;31.23;;;;;;;;;;5052148;28;20025;-31
2023/08/25 02:34:06;;;;;;;52.33;31.40;;;;;;;;;;5052320;28;20264;-31
2023/08/25 02:36:32;;;;;;;52.70;32.08;;;;;;;;;;5053664;28;20442;-31
2023/08/25 02:38:57;;;;;;;50.47;31.90;;;;;;;;;;5054235;28;20035;-30
2023/08/25 02:41:22;;;;;;;60.00;32.30;;;;;;;;;;5053081;28;20346;-31
2023/08/25 02:43:47;;;;;;;52.27;33.00;;;;;;;;;;5053690;28;20328;-31
2023/08/25 02:46:12;;;;;;;54.00;32.83;;;;;;;;;;5054246;28;20021;-30
2023/08/25 02:48:38;;;;;;;55.53;34.05;;;;;;;;;;5053848;28;20380;-31
2023/08/25 02:51:03;;;;;;;54.30;32.30;;;;;;;;;;5053925;28;20023;-31
2023/08/25 02:53:28;;;;;;;55.53;33.00;;;;;;;;;;5053976;28;20036;-30
2023/08/25 02:55:53;;;;;;;58.97;33.83;;;;;;;;;;5054461;28;20260;-31
2023/08/25 02:58:18;;;;;;;60.60;33.13;;;;;;;;;;5054171;28;20013;-30
2023/08/25 03:00:44;;;;;;;54.07;32.87;;;;;;;;;;5053591;28;20745;-30
2023/08/25 03:03:09;;;;;;;63.53;34.33;;;;;;;;;;5053792;28;20255;-31
2023/08/25 03:05:34;;;;;;;61.57;33.47;;;;;;;;;;5053711;28;20457;-30
2023/08/25 03:07:59;;;;;;;60.90;33.73;;;;;;;;;;5053496;28;20032;-30
2023/08/25 03:10:24;;;;;;;65.65;33.85;;;;;;;;;;5053506;28;20251;-30
2023/08/25 03:12:50;;;;;;;60.13;33.00;;;;;;;;;;5053674;28;20087;-30
2023/08/25 03:15:15;;;;;;;60.20;34.22;;;;;;;;;;5053720;28;20268;-30
2023/08/25 03:17:41;;;;;;;65.80;34.72;;;;;;;;;;5053395;28;20021;-30
2023/08/25 03:20:06;;;;;;;59.83;33.53;;;;;;;;;;5053651;28;20024;-31
2023/08/25 03:22:33;;;;;;;59.42;34.42;;;;;;;;;;5053587;28;20065;-31
2023/08/25 03:24:58;;;;;;;59.17;33.70;;;;;;;;;;5053302;28;20392;-29
2023/08/25 03:27:23;;;;;;;60.13;34.63;;;;;;;;;;5053340;28;20028;-31
2023/08/25 03:29:48;;;;;;;64.67;35.87;;;;;;;;;;5053487;28;20274;-31
2023/08/25 03:32:13;;;;;;;73.70;37.35;;;;;;;;;;5053144;28;20332;-31
2023/08/25 03:34:39;;;;;;;65.93;36.25;;;;;;;;;;5053821;28;20028;-31
2023/08/25 03:37:05;;;;;;;78.00;37.55;;;;;;;;;;5053257;28;20029;-29
2023/08/25 03:39:31;;;;;;;99.25;38.42;;;;;;;;;;5053431;28;20027;-31
2023/08/25 03:41:56;;;;;;;107.80;38.78;;;;;;;;;;5053457;28;20024;-29
2023/08/25 03:44:21;;;;;;;91.07;37.83;;;;;;;;;;5053903;28;20379;-29
2023/08/25 03:46:46;;;;;;;82.80;38.03;;;;;;;;;;5057467;28;20754;-31
2023/08/25 03:49:11;;;;;;;100.00;37.10;;;;;;;;;;5057649;28;20024;-30
2023/08/25 03:51:37;;;;;;;81.43;37.43;;;;;;;;;;5057127;28;20452;-30
2023/08/25 03:54:02;;;;;;;78.60;38.40;;;;;;;;;;5057020;28;20653;-31
2023/08/25 03:56:27;;;;;;;86.05;38.88;;;;;;;;;;5056991;28;20730;-31
2023/08/25 03:58:52;;;;;;;74.70;36.75;;;;;;;;;;5057478;28;20090;-30
2023/08/25 04:01:18;;;;;;;100.43;38.30;;;;;;;;;;5057425;28;20462;-31
2023/08/25 04:03:43;;;;;;;78.05;37.13;;;;;;;;;;5057168;28;20032;-30
2023/08/25 04:06:08;;;;;;;77.53;37.30;;;;;;;;;;5057093;28;20422;-31
2023/08/25 04:08:34;;;;;;;80.57;38.00;;;;;;;;;;5057098;28;20096;-31
2023/08/25 04:10:59;;;;;;;68.50;35.63;;;;;;;;;;5056999;28;20044;-30
2023/08/25 04:13:24;;;;;;;68.07;36.00;;;;;;;;;;5056601;28;20455;-30
2023/08/25 04:15:56;;;;;;;68.87;35.33;;;;;;;;;;5056598;28;20021;-31
2023/08/25 04:18:21;;;;;;;63.55;35.78;;;;;;;;;;5056561;28;20299;-30
2023/08/25 04:20:47;;;;;;;61.95;34.50;;;;;;;;;;5056638;28;20052;-32
2023/08/25 04:23:12;;;;;;;61.13;35.23;;;;;;;;;;5056523;28;20025;-31
2023/08/25 04:25:37;;;;;;;63.37;34.20;;;;;;;;;;5056617;28;20341;-30
2023/08/25 04:28:02;;;;;;;63.15;34.35;;;;;;;;;;5056713;28;20483;-30
2023/08/25 04:30:28;;;;;;;65.15;34.60;;;;;;;;;;5056331;28;20023;-32
2023/08/25 04:32:53;;;;;;;66.73;35.00;;;;;;;;;;5056624;28;20092;-30
2023/08/25 04:35:18;;;;;;;62.00;34.97;;;;;;;;;;5056870;28;20379;-31
2023/08/25 04:37:47;;;;;;;63.70;33.53;;;;;;;;;;5056224;28;20033;-32
2023/08/25 04:40:12;;;;;;;63.85;34.40;;;;;;;;;;5056486;28;20020;-31
2023/08/25 04:42:38;;;;;;;61.83;33.67;;;;;;;;;;5056173;28;20302;-31
2023/08/25 04:45:04;;;;;;;61.17;33.65;;;;;;;;;;5056288;28;20018;-30
2023/08/25 04:47:29;;;;;;;54.72;32.20;;;;;;;;;;5056796;28;20024;-31
2023/08/25 04:49:57;;;;;;;60.15;33.65;;;;;;;;;;5056501;28;20092;-31
2023/08/25 04:52:22;;;;;;;60.80;33.40;;;;;;;;;;5056221;28;20013;-31
2023/08/25 04:54:47;;;;;;;57.70;32.58;;;;;;;;;;5056212;28;20075;-30
2023/08/25 04:57:13;;;;;;;60.63;33.33;;;;;;;;;;5056109;28;20083;-31
2023/08/25 04:59:38;;;;;;;60.92;34.03;;;;;;;;;;5055732;28;20696;-32
2023/08/25 05:02:03;;;;;;;61.53;33.15;;;;;;;;;;5055771;28;20025;-32
2023/08/25 05:04:29;;;;;;;60.63;33.80;;;;;;;;;;5055712;28;20028;-31
2023/08/25 05:06:54;;;;;;;66.10;35.35;;;;;;;;;;5056427;28;20017;-32
2023/08/25 05:09:19;;;;;;;61.80;34.50;;;;;;;;;;5055653;28;20024;-32
2023/08/25 05:11:44;;;;;;;64.10;35.13;;;;;;;;;;5055708;28;20519;-31
2023/08/25 05:14:10;;;;;;;64.90;35.67;;;;;;;;;;5055602;28;20017;-31
2023/08/25 05:16:35;;;;;;;64.07;35.47;;;;;;;;;;5055804;28;20025;-31
2023/08/25 05:19:00;;;;;;;65.90;35.20;;;;;;;;;;5055750;28;20259;-32
2023/08/25 05:21:25;;;;;;;65.10;36.55;;;;;;;;;;5055695;28;20029;-32
2023/08/25 05:24:10;;;;;;;66.60;37.80;;;;;;;;;;5055355;28;20031;-32
2023/08/25 05:26:35;;;;;;;65.35;36.28;;;;;;;;;;5055075;28;20290;-32
2023/08/25 05:29:01;;;;;;;70.03;36.43;;;;;;;;;;5055251;28;20464;-32
2023/08/25 05:31:26;;;;;;;65.37;36.80;;;;;;;;;;5055432;28;20013;-32
2023/08/25 05:33:51;;;;;;;62.47;35.53;;;;;;;;;;5055113;28;20045;-32
2023/08/25 05:36:16;;;;;;;68.23;36.73;;;;;;;;;;5055161;28;20055;-30
2023/08/25 05:38:41;;;;;;;63.47;35.70;;;;;;;;;;5055442;28;20259;-31
2023/08/25 05:41:07;;;;;;;66.97;36.37;;;;;;;;;;5055053;28;20484;-32
2023/08/25 05:43:32;;;;;;;66.47;36.00;;;;;;;;;;5055333;28;20310;-32
2023/08/25 05:45:57;;;;;;;69.17;36.77;;;;;;;;;;5054954;28;20279;-32
2023/08/25 05:48:22;;;;;;;70.17;36.67;;;;;;;;;;5055229;28;20322;-32
2023/08/25 05:50:47;;;;;;;65.78;36.80;;;;;;;;;;5055227;28;20384;-31
2023/08/25 05:53:13;;;;;;;65.10;36.23;;;;;;;;;;5054877;28;20499;-31
2023/08/25 05:55:38;;;;;;;69.17;37.10;;;;;;;;;;5054194;28;20251;-32
2023/08/25 05:58:04;;;;;;;69.85;37.00;;;;;;;;;;5054992;28;20255;-30
2023/08/25 06:00:29;;;;;;;66.30;36.53;;;;;;;;;;5054970;28;20021;-30
2023/08/25 06:02:54;;;;;;;66.72;37.72;;;;;;;;;;5053560;28;20028;-31
2023/08/25 06:05:19;;;;;;;64.57;35.80;;;;;;;;;;5054784;28;20017;-32
2023/08/25 06:07:44;;;;;;;68.65;35.92;;;;;;;;;;5054538;28;20599;-32
2023/08/25 06:10:10;;;;;;;59.57;34.60;;;;;;;;;;5053542;28;20024;-31
2023/08/25 06:12:35;;;;;;;66.15;35.33;;;;;;;;;;5052326;28;20049;-32
2023/08/25 06:15:00;;;;;;;64.65;36.40;;;;;;;;;;5052558;28;20017;-32
2023/08/25 06:17:25;;;;;;;61.53;35.47;;;;;;;;;;5052531;28;20021;-32
2023/08/25 06:19:51;;;;;;;64.03;35.97;;;;;;;;;;5052353;28;20036;-31
2023/08/25 06:22:16;;;;;;;66.23;36.07;;;;;;;;;;5054122;28;20074;-30
2023/08/25 06:24:41;;;;;;;63.97;34.47;;;;;;;;;;5054451;28;20259;-30
2023/08/25 06:27:07;;;;;;;61.55;34.08;;;;;;;;;;5054373;28;20044;-31
2023/08/25 06:29:32;;;;;;;60.92;35.15;;;;;;;;;;5054028;28;20025;-30
2023/08/25 06:31:57;;;;;;;61.05;34.40;;;;;;;;;;5054325;28;20029;-31
2023/08/25 06:34:22;;;;;;;65.57;36.87;;;;;;;;;;5053035;28;20021;-31
2023/08/25 06:36:48;;;;;;;62.65;36.08;;;;;;;;;;5053887;28;20507;-31
2023/08/25 06:39:14;;;;;;;64.80;34.92;;;;;;;;;;5054401;28;20017;-31
2023/08/25 06:41:40;;;;;;;59.20;35.13;;;;;;;;;;5054203;28;20025;-30
2023/08/25 06:44:05;;;;;;;70.93;35.22;;;;;;;;;;5053875;28;20535;-30
2023/08/25 06:46:30;;;;;;;61.60;34.73;;;;;;;;;;5053743;28;20029;-31
2023/08/25 06:48:56;;;;;;;58.47;34.33;;;;;;;;;;5053788;28;20017;-31
2023/08/25 06:51:21;;;;;;;58.35;34.17;;;;;;;;;;5053979;28;20243;-31
2023/08/25 06:53:46;;;;;;;57.33;34.83;;;;;;;;;;5053937;28;20021;-31
2023/08/25 06:56:11;;;;;;;63.38;35.38;;;;;;;;;;5053936;28;20251;-31
2023/08/25 06:58:37;;;;;;;62.87;35.57;;;;;;;;;;5053965;28;20044;-30
2023/08/25 07:01:02;;;;;;;61.77;34.60;;;;;;;;;;5054091;28;20334;-31
2023/08/25 07:03:27;;;;;;;63.88;35.72;;;;;;;;;;5054081;28;20300;-31
2023/08/25 07:05:57;;;;;;;58.80;34.13;;;;;;;;;;5053474;28;20461;-31
2023/08/25 07:08:22;;;;;;;57.88;33.58;;;;;;;;;;5053491;28;20021;-31
2023/08/25 07:10:47;;;;;;;57.93;32.03;;;;;;;;;;5054026;28;20013;-31
2023/08/25 07:13:12;;;;;;;54.10;31.98;;;;;;;;;;5053338;28;20550;-31
2023/08/25 07:15:38;;;;;;;49.97;30.93;;;;;;;;;;5053910;28;20029;-30
2023/08/25 07:18:03;;;;;;;51.65;31.27;;;;;;;;;;5053238;28;20029;-31
2023/08/25 07:20:29;;;;;;;46.08;29.35;;;;;;;;;;5052570;28;20021;-31
2023/08/25 07:22:54;;;;;;;46.50;27.92;;;;;;;;;;5053917;28;20024;-31
2023/08/25 07:25:19;;;;;;;48.22;28.27;;;;;;;;;;5053494;28;20067;-31
2023/08/25 07:27:45;;;;;;;42.78;27.85;;;;;;;;;;5053274;28;20092;-31
2023/08/25 07:30:10;;;;;;;41.90;27.40;;;;;;;;;;5052419;28;20060;-30
2023/08/25 07:32:35;;;;;;;43.10;27.25;;;;;;;;;;5053215;28;20453;-31
2023/08/25 07:35:00;;;;;;;45.30;27.73;;;;;;;;;;5053534;28;20024;-31
2023/08/25 07:37:25;;;;;;;43.17;28.02;;;;;;;;;;5053768;28;20364;-31
2023/08/25 07:39:51;;;;;;;46.03;26.27;;;;;;;;;;5051437;28;20138;-31
2023/08/25 07:42:17;;;;;;;40.40;26.05;;;;;;;;;;5053207;28;20086;-31
2023/08/25 07:44:42;;;;;;;40.17;26.83;;;;;;;;;;5053267;28;20100;-30
2023/08/25 07:47:08;;;;;;;41.33;24.60;;;;;;;;;;5053391;28;20754;-30
2023/08/25 07:49:33;;;;;;;37.67;23.73;;;;;;;;;;5053460;28;20037;-31
2023/08/25 07:51:58;;;;;;;32.83;22.83;;;;;;;;;;5053351;28;20372;-31
2023/08/25 07:54:23;;;;;;;34.05;22.40;;;;;;;;;;5053385;28;20075;-31
2023/08/25 07:56:49;;;;;;;36.40;23.40;;;;;;;;;;5053098;28;20057;-31
2023/08/25 07:59:14;;;;;;;36.60;22.63;;;;;;;;;;5053122;28;20427;-38
2023/08/25 08:01:40;;;;;;;35.58;22.75;;;;;;;;;;5053229;28;20255;-31
2023/08/25 08:04:07;;;;;;;35.53;22.83;;;;;;;;;;5053175;28;20021;-31
2023/08/25 08:06:32;;;;;;;37.70;23.02;;;;;;;;;;5053102;28;20028;-31
2023/08/25 08:08:57;;;;;;;35.40;21.15;;;;;;;;;;5052841;28;20372;-31
2023/08/25 08:11:23;;;;;;;32.37;21.23;;;;;;;;;;5053170;28;20021;-31
2023/08/25 08:13:48;;;;;;;32.70;21.27;;;;;;;;;;5052973;28;20272;-31
2023/08/25 08:16:13;;;;;;;34.30;22.37;;;;;;;;;;5052800;28;20486;-31
2023/08/25 08:18:38;;;;;;;38.60;23.97;;;;;;;;;;5053419;28;20162;-31
2023/08/25 08:21:04;;;;;;;38.00;25.30;;;;;;;;;;5051547;28;20611;-31
2023/08/25 08:23:29;;;;;;;39.58;24.27;;;;;;;;;;5052748;28;20275;-31
2023/08/25 08:25:55;;;;;;;39.20;23.73;;;;;;;;;;5052960;28;20013;-30
2023/08/25 08:28:20;;;;;;;36.80;23.80;;;;;;;;;;5052960;28;20482;-30
2023/08/25 08:30:45;;;;;;;34.30;22.80;;;;;;;;;;5053993;28;20096;-32
2023/08/25 08:33:10;;;;;;;31.87;21.37;;;;;;;;;;5056326;28;20029;-31
2023/08/25 08:35:36;;;;;;;42.03;23.47;;;;;;;;;;5056589;28;20294;-31
2023/08/25 08:38:03;;;;;;;35.05;22.90;;;;;;;;;;5057034;28;20032;-30
2023/08/25 08:40:31;;;;;;;32.20;20.27;;;;;;;;;;5056473;28;20041;-31
2023/08/25 08:42:58;;;;;;;40.47;23.33;;;;;;;;;;5056500;28;20028;-30
2023/08/25 08:45:24;;;;;;;38.15;22.90;;;;;;;;;;5056013;28;20526;-30
2023/08/25 08:47:50;;;;;;;37.08;22.88;;;;;;;;;;5056400;28;20021;-31
2023/08/25 08:50:16;;;;;;;37.42;22.85;;;;;;;;;;5056008;28;20479;-30
2023/08/25 08:52:41;;;;;;;35.25;22.92;;;;;;;;;;5056732;28;20095;-32
2023/08/25 08:55:08;;;;;;;37.70;22.87;;;;;;;;;;5056279;28;20028;-30
2023/08/25 08:57:33;;;;;;;36.08;23.42;;;;;;;;;;5056129;28;20735;-30
2023/08/25 08:59:59;;;;;;;34.15;23.25;;;;;;;;;;5055813;28;20024;-31
2023/08/25 09:02:27;;;;;;;34.28;23.02;;;;;;;;;;5056103;28;20536;-30
2023/08/25 09:04:53;;;;;;;35.75;23.25;;;;;;;;;;5055962;28;20039;-31
2023/08/25 09:07:19;;;;;;;42.17;26.77;;;;;;;;;;5055880;28;20104;-31
2023/08/25 09:09:45;;;;;;;37.05;24.00;;;;;;;;;;5055931;28;20028;-31
2023/08/25 09:12:13;;;;;;;39.50;24.50;;;;;;;;;;5055606;28;20045;-31
2023/08/25 09:14:38;;;;;;;39.88;24.45;;;;;;;;;;5056382;28;20017;-31
2023/08/25 09:17:06;;;;;;;40.03;25.15;;;;;;;;;;5055571;28;20052;-31
2023/08/25 09:19:31;;;;;;;42.25;26.02;;;;;;;;;;5055821;28;20025;-31
2023/08/25 09:21:57;;;;;;;39.22;24.52;;;;;;;;;;5055732;28;20533;-31
2023/08/25 09:24:22;;;;;;;44.45;26.33;;;;;;;;;;5055670;28;20384;-31
2023/08/25 09:26:48;;;;;;;42.53;25.73;;;;;;;;;;5055273;28;20479;-31
2023/08/25 09:29:13;;;;;;;42.67;25.92;;;;;;;;;;5055804;28;20074;-31
2023/08/25 09:31:39;;;;;;;43.08;24.67;;;;;;;;;;5055400;28;20068;-30
2023/08/25 09:34:05;;;;;;;45.83;25.97;;;;;;;;;;5055205;28;20019;-31
2023/08/25 09:36:30;;;;;;;40.88;25.02;;;;;;;;;;5055156;28;20337;-31
2023/08/25 09:38:55;;;;;;;40.97;24.13;;;;;;;;;;5055087;28;20056;-31
2023/08/25 09:41:28;;;;;;;36.58;23.25;;;;;;;;;;5054786;28;20032;-31
2023/08/25 09:43:53;;;;;;;;;;;;;;;;;;5055249;28;20028;-31
2023/08/25 09:46:25;;;;;;;37.83;23.58;;;;;;;;;;5054860;28;19909;-31
2023/08/25 09:48:50;;;;;;;35.93;23.10;;;;;;;;;;5054960;28;20021;-31
2023/08/25 09:51:16;;;;;;;41.50;24.53;;;;;;;;;;5054880;28;20791;-31
2023/08/25 09:53:41;;;;;;;37.53;24.33;;;;;;;;;;5055038;28;20730;-30
2023/08/25 09:56:07;;;;;;;39.00;23.80;;;;;;;;;;5055035;28;20433;-31
2023/08/25 09:58:33;;;;;;;44.50;23.80;;;;;;;;;;5054943;28;20029;-31
2023/08/25 10:00:59;;;;;;;45.15;25.85;;;;;;;;;;5054708;28;20025;-31
2023/08/25 10:03:25;;;;;;;38.13;23.52;;;;;;;;;;5054647;28;20021;-31
2023/08/25 10:05:50;;;;;;;36.03;24.25;;;;;;;;;;5054575;28;20017;-31
2023/08/25 10:08:16;;;;;;;45.28;25.35;;;;;;;;;;5054473;28;20027;-31
2023/08/25 10:10:43;;;;;;;37.22;24.88;;;;;;;;;;5054541;28;20421;-31
2023/08/25 10:13:11;;;;;;;37.67;24.60;;;;;;;;;;5054303;28;20435;-31
2023/08/25 10:15:37;;;;;;;40.72;24.60;;;;;;;;;;5054647;28;20459;-31
2023/08/25 10:18:03;;;;;;;40.67;25.23;;;;;;;;;;5054410;28;20021;-31
2023/08/25 10:20:32;;;;;;;43.25;25.40;;;;;;;;;;5054256;28;20021;-30
2023/08/25 10:22:59;;;;;;;43.22;26.45;;;;;;;;;;5054489;28;20048;-31
2023/08/25 10:25:27;;;;;;;42.50;25.17;;;;;;;;;;5054168;28;20025;-30
2023/08/25 10:27:53;;;;;;;37.47;25.92;;;;;;;;;;5054725;28;20025;-31
2023/08/25 10:30:19;;;;;;;44.97;26.13;;;;;;;;;;5054582;28;20095;-31
2023/08/25 10:32:48;;;;;;;40.05;24.10;;;;;;;;;;5054371;28;20036;-31
2023/08/25 10:35:13;;;;;;;39.85;24.80;;;;;;;;;;5054318;28;20032;-31
2023/08/25 10:37:38;;;;;;;41.07;25.63;;;;;;;;;;5054068;28;20375;-31
2023/08/25 10:40:08;;;;;;;38.00;24.25;;;;;;;;;;5054456;28;20675;-31
2023/08/25 10:42:34;;;;;;;39.72;24.17;;;;;;;;;;5053975;28;20017;-31
2023/08/25 10:45:07;;;;;;;36.25;23.27;;;;;;;;;;5052943;28;20024;-31
2023/08/25 10:47:38;;;;;;;36.90;23.80;;;;;;;;;;5053819;28;20025;-30
2023/08/25 10:50:03;;;;;;;31.98;23.15;;;;;;;;;;5052465;28;20074;-31
2023/08/25 10:52:29;;;;;;;40.95;23.75;;;;;;;;;;5054041;28;20107;-30
2023/08/25 10:54:54;;;;;;;32.40;22.15;;;;;;;;;;5053606;28;20021;-31
2023/08/25 10:57:26;;;;;;;37.15;22.50;;;;;;;;;;5053966;28;20099;-30
2023/08/25 10:59:55;;;;;;;29.55;19.55;;;;;;;;;;5053893;28;20021;-31
2023/08/25 11:02:33;;;;;;;33.15;21.60;;;;;;;;;;5053370;28;20048;-30
2023/08/25 11:05:17;;;;;;;30.67;22.33;;;;;;;;;;5054667;28;20309;-30
2023/08/25 11:07:43;;;;;;;37.10;21.90;;;;;;;;;;5053541;28;20033;-31
2023/08/25 11:10:11;;;;;;;36.65;24.05;;;;;;;;;;5053465;28;20024;-31
2023/08/25 11:12:37;;;;;;;39.47;24.77;;;;;;;;;;5053284;28;20053;-30
2023/08/25 11:15:02;;;;;;;35.38;22.73;;;;;;;;;;5053426;28;20027;-31
2023/08/25 11:17:28;;;;;;;34.92;21.90;;;;;;;;;;5053361;28;20017;-30
2023/08/25 11:19:53;;;;;;;33.77;21.17;;;;;;;;;;5054262;28;20063;-31
2023/08/25 11:22:20;;;;;;;35.00;22.17;;;;;;;;;;5053366;28;20271;-31
2023/08/25 11:24:46;;;;;;;30.90;20.27;;;;;;;;;;5052255;28;20135;-31
2023/08/25 11:27:12;;;;;;;34.83;19.57;;;;;;;;;;5053298;28;20136;-30
2023/08/25 11:29:39;;;;;;;27.88;19.10;;;;;;;;;;5053119;28;20287;-30
2023/08/25 11:32:04;;;;;;;35.97;20.88;;;;;;;;;;5053519;28;20013;-31
2023/08/25 11:34:30;;;;;;;43.53;26.35;;;;;;;;;;5054043;28;20021;-30
2023/08/25 11:36:56;;;;;;;43.55;25.58;;;;;;;;;;5053558;28;20017;-31
2023/08/25 11:39:21;;;;;;;38.58;25.25;;;;;;;;;;5053509;28;20376;-30
2023/08/25 11:41:46;;;;;;;40.57;25.00;;;;;;;;;;5053258;28;20082;-30
2023/08/25 11:44:12;;;;;;;39.67;26.00;;;;;;;;;;5053426;28;20619;-31
2023/08/25 11:46:37;;;;;;;42.50;25.40;;;;;;;;;;5053352;28;20622;-30
2023/08/25 11:49:04;;;;;;;37.08;25.27;;;;;;;;;;5053352;28;20013;-30
2023/08/25 11:51:30;;;;;;;38.47;25.23;;;;;;;;;;5053128;28;20017;-31
2023/08/25 11:53:55;;;;;;;35.78;23.23;;;;;;;;;;5053066;28;20174;-30
2023/08/25 11:56:21;;;;;;;37.28;24.27;;;;;;;;;;5052977;28;20028;-31
2023/08/25 11:58:46;;;;;;;37.40;22.60;;;;;;;;;;5053069;28;20095;-32
2023/08/25 12:01:12;;;;;;;35.40;22.73;;;;;;;;;;5053381;28;20062;-32
2023/08/25 12:03:38;;;;;;;35.67;23.08;;;;;;;;;;5053465;28;20017;-32
2023/08/25 12:06:07;;;;;;;43.13;25.00;;;;;;;;;;5054870;28;20025;-32
2023/08/25 12:08:33;;;;;;;41.13;25.92;;;;;;;;;;5057202;28;20439;-32
2023/08/25 12:10:59;;;;;;;41.85;25.52;;;;;;;;;;5057082;28;20017;-32
2023/08/25 12:13:24;;;;;;;43.15;26.17;;;;;;;;;;5056722;28;20124;-32
2023/08/25 12:15:51;;;;;;;43.55;26.17;;;;;;;;;;5056698;28;20059;-32
2023/08/25 12:18:17;;;;;;;43.08;25.75;;;;;;;;;;5057513;28;20021;-30
2023/08/25 12:20:43;;;;;;;40.43;24.80;;;;;;;;;;5056905;28;20495;-32
2023/08/25 12:23:08;;;;;;;39.60;25.23;;;;;;;;;;5056936;28;20107;-32
2023/08/25 12:25:34;;;;;;;36.30;24.37;;;;;;;;;;5056521;28;20052;-32
2023/08/25 12:28:00;;;;;;;39.92;24.30;;;;;;;;;;5057308;28;20393;-32
2023/08/25 12:30:25;;;;;;;39.13;24.83;;;;;;;;;;5056505;28;20508;-31
2023/08/25 12:32:51;;;;;;;39.13;22.92;;;;;;;;;;5056668;28;20062;-31
2023/08/25 12:35:16;;;;;;;35.43;21.80;;;;;;;;;;5056988;28;20029;-32
2023/08/25 12:37:41;;;;;;;31.20;21.63;;;;;;;;;;5056575;28;20715;-32
2023/08/25 12:40:07;;;;;;;32.43;21.63;;;;;;;;;;5056283;28;20610;-32
2023/08/25 12:42:32;;;;;;;29.38;18.92;;;;;;;;;;5056789;28;20326;-31
2023/08/25 12:44:57;;;;;;;30.23;18.87;;;;;;;;;;5056183;28;20092;-31
2023/08/25 12:47:22;;;;;;;33.28;20.42;;;;;;;;;;5056307;28;20025;-32
2023/08/25 12:49:47;;;;;;;32.73;19.73;;;;;;;;;;5056109;28;20071;-32
2023/08/25 12:52:16;;;;;;;27.87;18.13;;;;;;;;;;5056049;28;20254;-32
2023/08/25 12:54:41;;;;;;;29.65;17.27;;;;;;;;;;5054695;28;20654;-31
2023/08/25 12:57:07;;;;;;;31.93;16.40;;;;;;;;;;5057049;28;20025;-32
2023/08/25 12:59:32;;;;;;;23.97;16.03;;;;;;;;;;5056443;28;20255;-32
2023/08/25 13:01:57;;;;;;;27.83;16.17;;;;;;;;;;5055849;28;20068;-32
2023/08/25 13:04:22;;;;;;;27.13;16.47;;;;;;;;;;5055815;28;20024;-32
2023/08/25 13:06:47;;;;;;;26.70;16.10;;;;;;;;;;5056279;28;20024;-31
2023/08/25 13:09:16;;;;;;;27.90;15.10;;;;;;;;;;5055957;28;20401;-31
2023/08/25 13:11:41;;;;;;;27.42;14.10;;;;;;;;;;5055769;28;20074;-31
2023/08/25 13:14:06;;;;;;;24.80;13.67;;;;;;;;;;5056119;28;20091;-31
2023/08/25 13:16:31;;;;;;;23.70;13.15;;;;;;;;;;5054954;28;20263;-31
2023/08/25 13:18:57;;;;;;;25.92;12.70;;;;;;;;;;5055058;28;20468;-31
2023/08/25 13:21:22;;;;;;;24.93;13.10;;;;;;;;;;5055344;28;20025;-31
2023/08/25 13:23:47;;;;;;;25.70;14.37;;;;;;;;;;5054995;28;20491;-31
2023/08/25 13:26:12;;;;;;;22.53;13.90;;;;;;;;;;5055000;28;20078;-30
2023/08/25 13:28:37;;;;;;;24.57;12.67;;;;;;;;;;5055276;28;20317;-31
2023/08/25 13:31:03;;;;;;;32.00;15.57;;;;;;;;;;5055067;28;20025;-31
2023/08/25 13:33:28;;;;;;;28.03;16.20;;;;;;;;;;5054940;28;20049;-30
2023/08/25 13:35:55;;;;;;;28.83;16.67;;;;;;;;;;5054979;28;20108;-31
2023/08/25 13:38:20;;;;;;;26.67;17.55;;;;;;;;;;5055409;28;20117;-30
2023/08/25 13:40:45;;;;;;;29.60;17.20;;;;;;;;;;5055191;28;20049;-31
2023/08/25 13:43:11;;;;;;;33.00;17.47;;;;;;;;;;5055058;28;20270;-31
2023/08/25 13:45:36;;;;;;;27.27;16.80;;;;;;;;;;5055166;28;20017;-31
2023/08/25 13:48:02;;;;;;;32.17;17.27;;;;;;;;;;5055326;28;20021;-31
2023/08/25 13:50:27;;;;;;;33.65;17.85;;;;;;;;;;5055195;28;20045;-31
2023/08/25 13:52:52;;;;;;;31.90;16.70;;;;;;;;;;5054803;28;20038;-32
2023/08/25 13:55:17;;;;;;;28.10;18.23;;;;;;;;;;5055369;28;20019;-32
2023/08/25 13:57:43;;;;;;;26.77;16.40;;;;;;;;;;5054811;28;20009;-32
2023/08/25 14:00:08;;;;;;;30.85;16.80;;;;;;;;;;5055046;28;20323;-31
2023/08/25 14:02:33;;;;;;;27.92;16.67;;;;;;;;;;5054975;28;20135;-31
2023/08/25 14:04:59;;;;;;;29.67;15.52;;;;;;;;;;5053665;28;20023;-32
2023/08/25 14:07:24;;;;;;;27.40;15.90;;;;;;;;;;5054858;28;20368;-32
2023/08/25 14:09:49;;;;;;;28.67;15.63;;;;;;;;;;5054573;28;20804;-32
2023/08/25 14:12:14;;;;;;;31.77;15.80;;;;;;;;;;5054613;28;20280;-32